Time;durP1;ratioP1;P1;durP2;ratioP2;P2;SDS_P1;SDS_P2;PMS_P1;PMS_P2;Temp;Humidity;BMP_temperature;BMP_pressure;BME280_temperature;BME280_humidity;BME280_pressure;Samples;Min_cycle;Max_cycle;Signal;HPM_P1;HPM_P2
2024/01/03 00:00:58;;;;;;;;;9.00;1.00;;;;;-144.24;100.00;58714.34;5035815;28;45407;-70
2024/01/03 00:03:24;;;;;;;;;3.00;1.00;;;;;-144.24;100.00;58193.94;5040175;28;45432;-70
2024/01/03 00:05:50;;;;;;;;;9.33;1.00;;;;;-144.24;100.00;57798.19;5035605;28;45500;-71
2024/01/03 00:08:28;;;;;;;;;1.67;1.00;;;;;-144.24;100.00;57121.22;5017658;28;45637;-69
2024/01/03 00:10:56;;;;;;;;;12.67;2.00;;;;;-144.24;100.00;56665.31;5034865;28;45594;-70
2024/01/03 00:13:33;;;;;;;;;3.00;3.00;;;;;-144.24;100.00;56209.44;5030054;28;45366;-71
2024/01/03 00:16:01;;;;;;;;;7.33;2.00;;;;;-144.24;100.00;56016.66;5033934;28;45472;-72
2024/01/03 00:18:44;;;;;;;;;9.33;2.00;;;;;-144.24;100.00;55518.72;5035760;28;45397;-71
2024/01/03 00:21:10;;;;;;;;;4.00;2.00;;;;;-144.24;100.00;55570.91;5017382;28;45452;-70
2024/01/03 00:23:39;;;;;;;;;3.67;1.00;;;;;-144.24;100.00;55309.91;5037240;28;45449;-72
2024/01/03 00:26:07;;;;;;;;;8.00;1.00;;;;;-144.24;100.00;55177.41;5004303;28;45458;-71
2024/01/03 00:28:32;;;;;;;;;10.33;2.67;;;;;-144.24;100.00;55034.88;5038850;28;45815;-72
2024/01/03 00:30:58;;;;;;;;;6.33;2.33;;;;;-144.24;100.00;54962.59;5035016;28;70012;-72
2024/01/03 00:33:24;;;;;;;;;4.00;0.67;;;;;-144.24;100.00;54802.00;5039379;28;45431;-71
2024/01/03 00:35:51;;;;;;;;;2.33;1.00;;;;;-144.24;100.00;54747.81;5020152;28;64639;-70
2024/01/03 00:38:16;;;;;;;;;12.00;2.00;;;;;-144.24;100.00;54438.69;5016789;28;45709;-72
2024/01/03 00:40:44;;;;;;;;;14.00;2.00;;;;;-144.24;100.00;54101.50;5018774;28;61236;-72
2024/01/03 00:43:10;;;;;;;;;3.33;1.00;;;;;-144.24;100.00;53812.50;5037091;28;45468;-72
2024/01/03 00:45:35;;;;;;;;;8.67;1.00;;;;;-144.24;100.00;53605.78;5037932;28;66152;-71
2024/01/03 00:48:00;;;;;;;;;10.33;1.00;;;;;-144.24;100.00;53461.31;5039999;28;75485;-72
2024/01/03 00:50:26;;;;;;;;;7.67;2.00;;;;;-144.24;100.00;53389.06;5037606;28;71260;-71
2024/01/03 00:52:51;;;;;;;;;14.00;1.67;;;;;-144.24;100.00;53288.72;5034060;28;67642;-71
2024/01/03 00:55:16;;;;;;;;;4.00;2.00;;;;;-144.24;100.00;52815.19;5036915;28;60856;-70
2024/01/03 00:57:42;;;;;;;;;6.33;1.00;;;;;-144.24;100.00;52732.94;5033469;28;71877;-72
2024/01/03 01:00:07;;;;;;;;;4.67;2.00;;;;;-144.24;100.00;52738.97;5034140;28;45476;-72
2024/01/03 01:02:33;;;;;;;;;9.33;2.00;;;;;-144.24;100.00;52975.72;5039550;28;45144;-72
2024/01/03 01:04:58;;;;;;;;;3.67;1.33;;;;;-144.24;100.00;52937.59;5037735;28;61659;-71
2024/01/03 01:07:23;;;;;;;;;9.00;1.00;;;;;-144.24;100.00;53007.81;5003288;28;66907;-71
2024/01/03 01:09:49;;;;;;;;;6.00;1.00;;;;;-144.24;100.00;52819.22;5034690;28;45421;-71
2024/01/03 01:12:14;;;;;;;;;9.00;3.00;;;;;-144.24;100.00;52939.59;5036617;28;45785;-72
2024/01/03 01:14:39;;;;;;;;;4.00;2.00;;;;;-144.24;100.00;52941.59;5037086;28;60106;-70
2024/01/03 01:17:05;;;;;;;;;9.33;0.67;;;;;-144.24;100.00;52903.47;5031679;28;75678;-72
2024/01/03 01:19:30;;;;;;;;;8.67;1.33;;;;;-144.24;100.00;53015.84;5034597;28;45341;-72
2024/01/03 01:21:55;;;;;;;;;5.00;0.00;;;;;-144.24;100.00;53198.44;5033784;28;45529;-70
2024/01/03 01:24:21;;;;;;;;;3.00;1.33;;;;;-144.24;100.00;53168.34;5031883;28;61140;-72
2024/01/03 01:26:46;;;;;;;;;8.00;3.00;;;;;-144.24;100.00;53499.44;5019385;28;46542;-71
2024/01/03 01:29:11;;;;;;;;;2.33;0.33;;;;;-144.24;100.00;53864.69;5031879;28;45415;-70
2024/01/03 01:31:37;;;;;;;;;1.00;1.00;;;;;-144.24;100.00;54450.75;5036974;28;45483;-70
2024/01/03 01:34:02;;;;;;;;;7.33;3.33;;;;;-144.24;100.00;54775.91;5037811;28;45366;-71
2024/01/03 01:36:27;;;;;;;;;3.67;2.00;;;;;-144.24;100.00;55173.41;5036566;28;65341;-72
2024/01/03 01:38:53;;;;;;;;;9.00;2.00;;;;;-144.24;100.00;55434.41;5037038;28;45385;-70
2024/01/03 01:41:18;;;;;;;;;9.00;1.00;;;;;-144.24;100.00;55970.50;5030754;28;45408;-70
2024/01/03 01:43:43;;;;;;;;;7.67;2.00;;;;;-144.24;100.00;56076.91;5036821;28;45433;-72
2024/01/03 01:46:10;;;;;;;;;10.33;1.00;;;;;-144.24;100.00;56109.03;5033791;28;71835;-71
2024/01/03 01:48:36;;;;;;;;;3.67;2.00;;;;;-144.24;100.00;56323.91;5037596;28;45631;-71
2024/01/03 01:51:02;;;;;;;;;12.00;1.00;;;;;-144.24;100.00;56468.50;5033576;28;45338;-70
2024/01/03 01:53:28;;;;;;;;;6.00;2.00;;;;;-144.24;100.00;56687.41;5038111;28;45375;-72
2024/01/03 01:55:53;;;;;;;;;5.00;1.33;;;;;-144.24;100.00;56952.50;5034995;28;72918;-70
2024/01/03 01:58:21;;;;;;;;;12.33;2.00;;;;;-144.24;100.00;57187.50;5032692;28;69120;-70
2024/01/03 02:00:46;;;;;;;;;3.67;1.67;;;;;-144.24;100.00;57257.81;5036647;28;59125;-72
2024/01/03 02:03:11;;;;;;;;;2.67;1.00;;;;;-144.24;100.00;57392.41;5037695;28;60913;-72
2024/01/03 02:05:37;;;;;;;;;13.00;3.00;;;;;-144.24;100.00;57370.31;5036077;28;46628;-73
2024/01/03 02:08:06;;;;;;;;;10.67;2.00;;;;;-144.24;100.00;57520.97;5018549;28;45506;-70
2024/01/03 02:10:31;;;;;;;;;5.67;1.00;;;;;-144.24;100.00;57671.63;5018535;28;45558;-71
2024/01/03 02:12:57;;;;;;;;;6.33;1.00;;;;;-144.24;100.00;58199.97;5034505;28;67349;-72
2024/01/03 02:15:23;;;;;;;;;5.00;2.00;;;;;-144.24;100.00;58599.81;5035826;28;70183;-71
2024/01/03 02:17:49;;;;;;;;;0.00;0.00;;;;;-144.24;100.00;59216.72;5033248;28;45368;-70
2024/01/03 02:20:14;;;;;;;;;2.00;1.00;;;;;-144.24;100.00;60249.81;5018842;28;67456;-69
2024/01/03 02:22:40;;;;;;;;;4.33;2.00;;;;;-144.24;100.00;60515.16;5036751;28;45563;-70
2024/01/03 02:25:10;;;;;;;;;9.67;3.00;;;;;-144.24;100.00;60770.47;5034123;28;71001;-72
2024/01/03 02:27:35;;;;;;;;;9.67;0.67;;;;;-144.24;100.00;60834.78;5035532;28;45467;-71
2024/01/03 02:30:01;;;;;;;;;0.67;0.67;;;;;-144.24;100.00;61158.50;5036617;28;45451;-71
2024/01/03 02:32:26;;;;;;;;;5.67;1.00;;;;;-144.24;100.00;61222.81;5036553;28;62269;-72
2024/01/03 02:34:51;;;;;;;;;2.00;2.00;;;;;-144.24;100.00;61582.75;5036008;28;75036;-70
2024/01/03 02:37:22;;;;;;;;;3.67;1.67;;;;;-144.24;100.00;61799.94;5036321;28;60392;-71
2024/01/03 02:39:47;;;;;;;;;6.67;1.33;;;;;-144.24;100.00;61586.78;5035560;28;45258;-70
2024/01/03 02:44:47;;;;;;;;;8.67;2.67;;;;;-144.24;100.00;61655.13;5082995;22;47239;-72
2024/01/03 02:47:13;;;;;;;;;3.67;1.00;;;;;-144.24;100.00;62035.22;5035504;28;59760;-71
2024/01/03 02:49:38;;;;;;;;;4.33;1.33;;;;;-144.24;100.00;62220.22;5036356;28;57884;-72
2024/01/03 02:52:04;;;;;;;;;2.33;1.33;;;;;-144.24;100.00;62210.19;5036707;28;45585;-72
2024/01/03 02:54:29;;;;;;;;;6.67;2.00;;;;;-144.24;100.00;62007.06;5036421;28;46470;-70
2024/01/03 02:56:57;;;;;;;;;4.00;2.00;;;;;-144.24;100.00;61974.88;5035592;28;55329;-71
2024/01/03 02:59:24;;;;;;;;;9.00;1.33;;;;;-144.24;100.00;61858.25;5036638;28;45460;-69
2024/01/03 03:01:49;;;;;;;;;7.00;2.00;;;;;-144.24;100.00;61707.44;5035851;28;45592;-70
2024/01/03 03:04:15;;;;;;;;;9.00;2.00;;;;;-144.24;100.00;61741.59;5036520;28;46477;-72
2024/01/03 03:06:40;;;;;;;;;7.00;2.00;;;;;-144.24;100.00;61612.91;5035549;28;58568;-72
2024/01/03 03:09:05;;;;;;;;;3.00;1.00;;;;;-144.24;100.00;61538.50;5035038;28;65590;-72
2024/01/03 03:11:31;;;;;;;;;4.00;1.00;;;;;-144.24;100.00;61395.75;5035750;28;59102;-73
2024/01/03 03:13:56;;;;;;;;;5.67;1.67;;;;;-144.24;100.00;61576.72;5035123;28;70622;-71
2024/01/03 03:16:21;;;;;;;;;1.67;1.67;;;;;-144.24;100.00;61695.34;5035869;28;66686;-70
2024/01/03 03:18:46;;;;;;;;;8.00;1.00;;;;;-144.24;100.00;61723.50;5035477;28;64179;-72
2024/01/03 03:21:12;;;;;;;;;3.33;1.00;;;;;-144.24;100.00;61643.06;5036639;28;45473;-72
2024/01/03 03:23:37;;;;;;;;;3.67;1.67;;;;;-144.24;100.00;61999.00;5036449;28;46394;-70
2024/01/03 03:26:03;;;;;;;;;4.33;1.33;;;;;-144.24;100.00;62067.38;5036284;28;45326;-70
2024/01/03 03:28:30;;;;;;;;;3.67;0.67;;;;;-144.24;100.00;62017.13;5036296;28;45341;-72
2024/01/03 03:30:55;;;;;;;;;4.00;1.00;;;;;-144.24;100.00;62173.97;5032925;28;45552;-72
2024/01/03 03:33:20;;;;;;;;;4.00;0.00;;;;;-144.24;100.00;62188.06;5035410;28;65946;-72
2024/01/03 03:35:46;;;;;;;;;4.33;1.33;;;;;-144.24;100.00;62359.00;5034902;28;66774;-72
2024/01/03 03:38:11;;;;;;;;;2.00;1.00;;;;;-144.24;100.00;62346.94;5036762;28;45482;-71
2024/01/03 03:40:36;;;;;;;;;5.33;1.67;;;;;-144.24;100.00;62371.06;5034742;28;65294;-70
2024/01/03 03:43:02;;;;;;;;;3.00;1.00;;;;;-144.24;100.00;62443.47;5016257;28;71912;-71
2024/01/03 03:45:27;;;;;;;;;10.33;2.00;;;;;-144.24;100.00;62387.16;5035057;28;53677;-71
2024/01/03 03:47:52;;;;;;;;;5.00;1.00;;;;;-144.24;100.00;62602.38;5036147;28;45525;-71
2024/01/03 03:50:18;;;;;;;;;1.67;0.00;;;;;-144.24;100.00;62636.56;5036043;28;45292;-69
2024/01/03 03:52:44;;;;;;;;;5.00;1.00;;;;;-144.24;100.00;62523.94;5036392;28;45679;-70
2024/01/03 03:55:11;;;;;;;;;4.00;0.33;;;;;-144.24;100.00;62284.59;5031444;28;45571;-71
2024/01/03 03:57:36;;;;;;;;;0.00;0.00;;;;;-144.24;100.00;62405.25;5035358;28;45353;-71
2024/01/03 04:00:05;;;;;;;;;1.67;0.00;;;;;-144.24;100.00;62423.38;5034922;28;53375;-70
2024/01/03 04:02:30;;;;;;;;;3.00;0.00;;;;;-144.24;100.00;62676.78;5035976;28;46717;-72
2024/01/03 04:04:56;;;;;;;;;1.67;0.00;;;;;-144.24;100.00;63183.69;5034723;28;67130;-70
2024/01/03 04:07:21;;;;;;;;;0.33;0.00;;;;;-144.24;100.00;63451.25;5031123;28;45218;-71
2024/01/03 04:09:47;;;;;;;;;1.67;0.00;;;;;-144.24;100.00;63777.16;5035082;28;64025;-71
2024/01/03 04:12:12;;;;;;;;;5.67;0.00;;;;;-144.24;100.00;64016.59;5035038;28;72307;-71
2024/01/03 04:14:37;;;;;;;;;2.00;1.00;;;;;-144.24;100.00;64113.16;5035841;28;45816;-70
2024/01/03 04:17:03;;;;;;;;;1.00;0.00;;;;;-144.24;100.00;64302.31;5035804;28;53929;-71
2024/01/03 04:19:30;;;;;;;;;1.67;0.33;;;;;-144.24;100.00;64388.84;5034936;28;45507;-71
2024/01/03 04:21:55;;;;;;;;;2.00;0.00;;;;;-144.24;100.00;64549.81;5035818;28;45723;-71
2024/01/03 04:24:21;;;;;;;;;1.00;0.00;;;;;-144.24;100.00;65024.75;5035846;28;45448;-71
2024/01/03 04:26:46;;;;;;;;;3.00;0.00;;;;;-144.24;100.00;65763.44;5035567;28;47499;-70
2024/01/03 04:29:11;;;;;;;;;0.67;0.00;;;;;-144.24;100.00;66876.75;5034979;28;62469;-71
2024/01/03 04:31:36;;;;;;;;;0.00;0.00;;;;;-144.24;100.00;67726.53;5016687;28;65470;-71
2024/01/03 04:34:03;;;;;;;;;3.00;1.00;;;;;-144.24;100.00;68365.00;5034594;28;72394;-71
2024/01/03 04:36:28;;;;;;;;;1.00;1.00;;;;;-144.24;100.00;68697.38;5017388;28;45508;-71
2024/01/03 04:38:53;;;;;;;;;2.00;0.00;;;;;-144.24;100.00;68755.78;5035839;28;45338;-70
2024/01/03 04:41:19;;;;;;;;;0.00;0.00;;;;;-144.24;100.00;68826.28;5034153;28;68532;-72
2024/01/03 04:43:44;;;;;;;;;1.00;0.00;;;;;-144.24;100.00;68824.28;5034352;28;45485;-70
2024/01/03 04:46:09;;;;;;;;;1.67;0.00;;;;;-144.24;100.00;69106.31;5030751;28;67218;-69
2024/01/03 04:48:35;;;;;;;;;0.67;0.00;;;;;-144.24;100.00;69307.78;5033350;28;45517;-71
2024/01/03 04:51:00;;;;;;;;;2.00;0.00;;;;;-144.24;100.00;69424.63;5016434;28;74469;-70
2024/01/03 04:53:25;;;;;;;;;2.00;0.00;;;;;-144.24;100.00;69481.03;5034748;28;45495;-71
2024/01/03 04:55:51;;;;;;;;;2.00;1.00;;;;;-144.24;100.00;69454.84;5034515;28;65949;-71
2024/01/03 04:58:17;;;;;;;;;2.33;0.33;;;;;-144.24;100.00;69348.06;5017623;28;45460;-71
2024/01/03 05:00:43;;;;;;;;;2.00;1.00;;;;;-144.24;100.00;69450.81;5034585;28;45618;-69
2024/01/03 05:03:08;;;;;;;;;3.00;0.33;;;;;-144.24;100.00;69612.00;5035053;28;47384;-71
2024/01/03 05:05:33;;;;;;;;;3.00;1.00;;;;;-144.24;100.00;69670.44;5033972;28;65309;-71
2024/01/03 05:07:59;;;;;;;;;1.00;0.67;;;;;-144.24;100.00;69614.03;5035186;28;45515;-71
2024/01/03 05:10:24;;;;;;;;;2.00;0.00;;;;;-144.24;100.00;69466.94;5035156;28;47395;-72
2024/01/03 05:12:50;;;;;;;;;0.33;0.00;;;;;-144.24;100.00;69424.63;5038347;28;45468;-72
2024/01/03 05:15:16;;;;;;;;;1.00;1.00;;;;;-144.24;100.00;69271.50;5038670;28;45553;-70
2024/01/03 05:17:41;;;;;;;;;2.00;0.00;;;;;-144.24;100.00;69364.19;5038358;28;45468;-70
2024/01/03 05:20:08;;;;;;;;;0.00;0.00;;;;;-144.24;100.00;69152.66;5038193;28;46620;-72
2024/01/03 05:22:33;;;;;;;;;3.33;1.00;;;;;-144.24;100.00;69430.69;5038713;28;45376;-70
2024/01/03 05:24:59;;;;;;;;;5.33;0.67;;;;;-144.24;100.00;69456.88;5038238;28;45855;-70
2024/01/03 05:27:25;;;;;;;;;1.33;0.00;;;;;-144.24;100.00;69537.47;5038800;28;45205;-70
2024/01/03 05:29:50;;;;;;;;;4.00;1.00;;;;;-144.24;100.00;69539.47;5037276;28;72686;-70
2024/01/03 05:32:16;;;;;;;;;3.00;1.00;;;;;-144.24;100.00;69614.03;5032619;28;70879;-71
2024/01/03 05:34:41;;;;;;;;;2.00;0.00;;;;;-144.24;100.00;69684.56;5038588;28;45331;-69
2024/01/03 05:37:07;;;;;;;;;2.33;0.00;;;;;-144.24;100.00;70019.03;5037387;28;63416;-70
2024/01/03 05:39:32;;;;;;;;;3.00;0.00;;;;;-144.24;100.00;70279.00;5038228;28;46363;-70
2024/01/03 05:41:57;;;;;;;;;0.00;0.00;;;;;-144.24;100.00;70101.66;5037551;28;67412;-71
2024/01/03 05:44:23;;;;;;;;;1.00;0.00;;;;;-144.24;100.00;70416.03;5037195;28;60692;-70
2024/01/03 05:46:48;;;;;;;;;2.00;0.00;;;;;-144.24;100.00;70218.53;5037466;28;59066;-70
2024/01/03 05:49:13;;;;;;;;;1.00;0.00;;;;;-144.24;100.00;70345.50;5037697;28;46497;-71
2024/01/03 05:51:39;;;;;;;;;0.00;0.00;;;;;-144.24;100.00;70037.19;5037685;28;55857;-70
2024/01/03 05:54:04;;;;;;;;;1.67;0.00;;;;;-144.24;100.00;70051.28;5037333;28;61417;-70
2024/01/03 05:56:29;;;;;;;;;0.00;0.00;;;;;-144.24;100.00;69994.84;5033600;28;45603;-71
2024/01/03 05:58:55;;;;;;;;;0.00;0.00;;;;;-144.24;100.00;69755.06;5036751;28;70501;-71
2024/01/03 06:01:20;;;;;;;;;0.00;0.00;;;;;-144.24;100.00;69642.25;5036423;28;71103;-70
2024/01/03 06:03:47;;;;;;;;;1.67;0.00;;;;;-144.24;100.00;69470.97;5019874;28;45401;-70
2024/01/03 06:06:12;;;;;;;;;2.67;0.33;;;;;-144.24;100.00;69154.66;5037212;28;45564;-72
2024/01/03 06:08:37;;;;;;;;;3.67;0.00;;;;;-144.24;100.00;69037.81;5019183;28;46490;-72
2024/01/03 06:11:03;;;;;;;;;2.00;0.00;;;;;-144.24;100.00;68927.00;5036913;28;45425;-70
2024/01/03 06:13:28;;;;;;;;;1.00;1.00;;;;;-144.24;100.00;68947.16;5030743;28;45230;-70
2024/01/03 06:15:54;;;;;;;;;2.00;0.00;;;;;-144.24;100.00;68834.34;5036443;28;67387;-71
2024/01/03 06:18:21;;;;;;;;;5.33;0.00;;;;;-144.24;100.00;68723.56;5031735;28;45924;-71
2024/01/03 06:20:46;;;;;;;;;2.00;1.00;;;;;-144.24;100.00;68612.75;5017691;28;45381;-72
2024/01/03 06:23:12;;;;;;;;;0.00;0.00;;;;;-144.24;100.00;68532.19;5035509;28;58867;-71
2024/01/03 06:25:37;;;;;;;;;4.00;0.00;;;;;-144.24;100.00;68497.94;5019195;28;45476;-73
2024/01/03 06:28:04;;;;;;;;;5.67;1.33;;;;;-144.24;100.00;68407.28;5036162;28;46715;-71
2024/01/03 06:30:29;;;;;;;;;2.00;0.67;;;;;-144.24;100.00;68360.97;5037094;28;45285;-72
2024/01/03 06:32:54;;;;;;;;;2.67;0.00;;;;;-144.24;100.00;68560.38;5036995;28;45643;-71
2024/01/03 06:35:20;;;;;;;;;3.00;0.33;;;;;-144.24;100.00;68461.69;5037059;28;60321;-71
2024/01/03 06:37:45;;;;;;;;;2.33;0.00;;;;;-144.24;100.00;68685.28;5036657;28;46849;-71
2024/01/03 06:40:11;;;;;;;;;3.00;1.00;;;;;-144.24;100.00;68578.50;5036018;28;63072;-72
2024/01/03 06:42:36;;;;;;;;;6.67;1.00;;;;;-144.24;100.00;68691.31;5034729;28;50582;-72
2024/01/03 06:45:01;;;;;;;;;8.33;1.00;;;;;-144.24;100.00;68429.44;5033341;28;45461;-71
2024/01/03 06:47:26;;;;;;;;;6.67;1.00;;;;;-144.24;100.00;68522.13;5036586;28;53990;-73
2024/01/03 06:49:52;;;;;;;;;0.00;0.00;;;;;-144.24;100.00;68433.47;5017838;28;68922;-72
2024/01/03 06:52:18;;;;;;;;;2.00;0.00;;;;;-144.24;100.00;68310.63;5036056;28;66067;-71
2024/01/03 06:54:43;;;;;;;;;3.67;0.00;;;;;-144.24;100.00;68270.31;5036332;28;45528;-72
2024/01/03 06:57:08;;;;;;;;;5.00;1.00;;;;;-144.24;100.00;68209.91;5035480;28;73605;-72
2024/01/03 06:59:37;;;;;;;;;5.00;0.00;;;;;-144.24;100.00;68161.56;5035432;28;45478;-72
2024/01/03 07:02:02;;;;;;;;;1.00;1.00;;;;;-144.24;100.00;68282.41;5036111;28;48567;-71
2024/01/03 07:04:27;;;;;;;;;1.00;1.00;;;;;-144.24;100.00;68169.63;5036532;28;45333;-71
2024/01/03 07:06:53;;;;;;;;;2.00;0.00;;;;;-144.24;100.00;68070.94;5035634;28;50890;-72
2024/01/03 07:09:18;;;;;;;;;2.00;0.00;;;;;-144.24;100.00;68123.28;5036957;28;45394;-71
2024/01/03 07:11:44;;;;;;;;;1.00;0.00;;;;;-144.24;100.00;68107.19;5035860;28;63230;-72
2024/01/03 07:14:12;;;;;;;;;5.00;2.33;;;;;-144.24;100.00;68010.50;5035955;28;64368;-72
2024/01/03 07:16:38;;;;;;;;;5.33;1.00;;;;;-144.24;100.00;67968.22;5036248;28;46635;-71
2024/01/03 07:19:03;;;;;;;;;0.00;0.00;;;;;-144.24;100.00;68113.22;5016537;28;45449;-72
2024/01/03 07:21:28;;;;;;;;;1.00;0.67;;;;;-144.24;100.00;67919.88;5018592;28;45502;-72
2024/01/03 07:23:54;;;;;;;;;6.33;2.00;;;;;-144.24;100.00;67766.81;5036364;28;45456;-71
2024/01/03 07:26:19;;;;;;;;;1.00;1.00;;;;;-144.24;100.00;67954.13;5033769;28;66215;-74
2024/01/03 07:28:44;;;;;;;;;4.33;2.00;;;;;-144.24;100.00;67925.91;5032926;28;70935;-72
2024/01/03 07:31:11;;;;;;;;;7.00;1.00;;;;;-144.24;100.00;67887.66;5030795;28;45522;-73
2024/01/03 07:33:36;;;;;;;;;3.67;1.00;;;;;-144.24;100.00;67658.06;5032918;28;45457;-71
2024/01/03 07:36:02;;;;;;;;;2.00;1.00;;;;;-144.24;100.00;67561.41;5017513;28;47156;-70
2024/01/03 07:38:27;;;;;;;;;6.00;2.00;;;;;-144.24;100.00;67462.72;5034243;28;45398;-70
2024/01/03 07:40:53;;;;;;;;;6.67;1.33;;;;;-144.24;100.00;67358.00;5033931;28;66406;-70
2024/01/03 07:43:18;;;;;;;;;4.00;0.00;;;;;-144.24;100.00;67545.28;5032593;28;67695;-72
2024/01/03 07:45:43;;;;;;;;;1.00;1.00;;;;;-144.24;100.00;67394.25;5029879;28;71415;-72
2024/01/03 07:48:09;;;;;;;;;4.00;2.67;;;;;-144.24;100.00;67432.50;5031185;28;62061;-71
2024/01/03 07:50:34;;;;;;;;;9.00;1.67;;;;;-144.24;100.00;67418.41;5033002;28;60507;-72
2024/01/03 07:52:59;;;;;;;;;3.00;2.00;;;;;-144.24;100.00;67376.13;5035061;28;45521;-72
2024/01/03 07:55:25;;;;;;;;;4.00;1.00;;;;;-144.24;100.00;67494.94;5030236;28;70462;-73
2024/01/03 07:57:50;;;;;;;;;5.67;1.00;;;;;-144.24;100.00;67394.25;5033789;28;45436;-71
2024/01/03 08:00:16;;;;;;;;;4.00;2.00;;;;;-144.24;100.00;67656.03;5033392;28;63816;-72
2024/01/03 08:02:41;;;;;;;;;5.33;1.33;;;;;-144.24;100.00;67615.75;5034648;28;45621;-72
2024/01/03 08:05:07;;;;;;;;;4.00;1.33;;;;;-144.24;100.00;67579.50;5034330;28;46738;-71
2024/01/03 08:07:33;;;;;;;;;7.33;1.33;;;;;-144.24;100.00;67583.53;5033679;28;45503;-71
2024/01/03 08:09:58;;;;;;;;;9.00;3.00;;;;;-144.24;100.00;67486.88;5034441;28;45317;-70
2024/01/03 08:12:24;;;;;;;;;2.00;2.00;;;;;-144.24;100.00;67378.13;5034436;28;45416;-69
2024/01/03 08:14:49;;;;;;;;;2.67;0.67;;;;;-144.24;100.00;67261.34;5033634;28;46365;-68
2024/01/03 08:17:14;;;;;;;;;4.33;1.00;;;;;-144.24;100.00;67237.19;5033576;28;71398;-68
2024/01/03 08:19:40;;;;;;;;;2.33;0.67;;;;;-144.24;100.00;67289.53;5012274;28;45313;-69
2024/01/03 08:22:05;;;;;;;;;4.67;1.67;;;;;-144.24;100.00;67446.59;5013421;28;45589;-67
2024/01/03 08:24:31;;;;;;;;;5.33;1.00;;;;;-144.24;100.00;67583.53;5030486;28;46331;-68
2024/01/03 08:26:57;;;;;;;;;8.67;3.00;;;;;-144.24;100.00;67498.97;5031021;28;67006;-68
2024/01/03 08:29:23;;;;;;;;;3.33;1.00;;;;;-144.24;100.00;67591.59;5033529;28;45552;-70
2024/01/03 08:31:51;;;;;;;;;3.67;1.00;;;;;-144.24;100.00;67476.81;5034476;28;45249;-67
2024/01/03 08:34:16;;;;;;;;;3.67;1.33;;;;;-144.24;100.00;67317.72;5033436;28;45735;-68
2024/01/03 08:36:43;;;;;;;;;3.00;1.00;;;;;-144.24;100.00;67235.16;5034268;28;45617;-67
2024/01/03 08:39:08;;;;;;;;;1.00;1.00;;;;;-144.24;100.00;67154.63;5033657;28;45453;-68
2024/01/03 08:41:34;;;;;;;;;2.67;1.00;;;;;-144.24;100.00;67241.19;5034517;28;45540;-67
2024/01/03 08:43:59;;;;;;;;;5.33;0.00;;;;;-144.24;100.00;66955.28;5033328;28;47760;-68
2024/01/03 08:46:28;;;;;;;;;3.00;1.00;;;;;-144.24;100.00;66987.50;5030747;28;45393;-67
2024/01/03 08:48:54;;;;;;;;;7.33;1.00;;;;;-144.24;100.00;66772.03;5032360;28;45516;-67
2024/01/03 08:51:19;;;;;;;;;5.67;1.33;;;;;-144.24;100.00;66842.50;5036693;28;45587;-67
2024/01/03 08:53:45;;;;;;;;;15.00;2.00;;;;;-144.24;100.00;66635.13;5035242;28;72337;-67
2024/01/03 08:56:17;;;;;;;;;1.00;1.00;;;;;-144.24;100.00;66580.78;5036869;28;47375;-68
2024/01/03 08:58:43;;;;;;;;;5.00;2.00;;;;;-144.24;100.00;66343.19;5037199;28;45569;-68
2024/01/03 09:01:15;;;;;;;;;3.00;2.00;;;;;-144.24;100.00;66214.34;5036018;28;46469;-68
2024/01/03 09:03:40;;;;;;;;;5.67;2.00;;;;;-144.24;100.00;66105.66;5033952;28;45636;-67
2024/01/03 09:06:06;;;;;;;;;3.00;1.00;;;;;-144.24;100.00;65930.50;5035402;28;71289;-68
2024/01/03 09:08:32;;;;;;;;;7.00;2.00;;;;;-144.24;100.00;66025.13;5037256;28;45393;-68
2024/01/03 09:10:57;;;;;;;;;4.67;1.00;;;;;-144.24;100.00;65936.56;5036103;28;45442;-69
2024/01/03 09:13:23;;;;;;;;;5.33;0.67;;;;;-144.24;100.00;66055.31;5034575;28;69282;-65
2024/01/03 09:15:48;;;;;;;;;4.33;0.67;;;;;-144.24;100.00;66188.19;5037523;28;45447;-68
2024/01/03 09:18:13;;;;;;;;;4.33;3.00;;;;;-144.24;100.00;66226.44;5030986;28;68662;-66
2024/01/03 09:20:38;;;;;;;;;3.67;1.33;;;;;-144.24;100.00;66194.22;5029826;28;65780;-65
2024/01/03 09:23:04;;;;;;;;;2.67;1.00;;;;;-144.24;100.00;66262.69;5035441;28;72550;-66
2024/01/03 09:25:30;;;;;;;;;4.67;3.00;;;;;-144.24;100.00;66244.56;5036873;28;45445;-65
2024/01/03 09:27:55;;;;;;;;;7.00;1.00;;;;;-144.24;100.00;66367.38;5035796;28;64295;-69
2024/01/03 09:30:20;;;;;;;;;5.00;3.00;;;;;-144.24;100.00;66488.16;5034524;28;63280;-66
2024/01/03 09:32:46;;;;;;;;;7.00;4.00;;;;;-144.24;100.00;66536.47;5034095;28;61243;-66
2024/01/03 09:35:11;;;;;;;;;9.00;2.00;;;;;-144.24;100.00;66500.25;5029857;28;45551;-68
2024/01/03 09:37:37;;;;;;;;;5.67;1.67;;;;;-144.24;100.00;66651.25;5033909;28;45629;-69
2024/01/03 09:40:03;;;;;;;;;10.00;3.00;;;;;-144.24;100.00;66470.03;5030818;28;45550;-67
2024/01/03 09:42:29;;;;;;;;;7.67;3.00;;;;;-144.24;100.00;66655.25;5024601;28;47288;-70
2024/01/03 09:44:54;;;;;;;;;9.00;2.00;;;;;-144.24;100.00;66653.25;5030798;28;72283;-68
2024/01/03 09:47:20;;;;;;;;;6.67;2.67;;;;;-144.24;100.00;66701.56;5034920;28;45659;-68
2024/01/03 09:49:46;;;;;;;;;5.67;1.00;;;;;-144.24;100.00;66562.66;5018301;28;45955;-67
2024/01/03 09:52:12;;;;;;;;;4.00;2.00;;;;;-144.24;100.00;66655.25;5034681;28;69019;-66
2024/01/03 09:54:39;;;;;;;;;5.33;3.00;;;;;-144.24;100.00;66657.28;5033265;28;45452;-70
2024/01/03 09:57:07;;;;;;;;;5.00;2.00;;;;;-144.24;100.00;66848.56;5034812;28;46054;-66
2024/01/03 09:59:34;;;;;;;;;4.33;2.00;;;;;-144.24;100.00;66641.16;5036404;28;45583;-70
2024/01/03 10:01:59;;;;;;;;;4.33;1.00;;;;;-144.24;100.00;66238.50;5019734;28;45446;-70
2024/01/03 10:04:25;;;;;;;;;5.00;2.67;;;;;-144.24;100.00;65912.41;5016245;28;45501;-73
2024/01/03 10:06:55;;;;;;;;;6.67;1.67;;;;;-144.24;100.00;65803.69;5033174;28;45460;-72
2024/01/03 10:09:21;;;;;;;;;12.00;1.00;;;;;-144.24;100.00;65725.19;5034470;28;45512;-73
2024/01/03 10:11:51;;;;;;;;;3.00;1.00;;;;;-144.24;100.00;65823.81;5035723;28;46752;-73
2024/01/03 10:14:21;;;;;;;;;8.00;2.33;;;;;-144.24;100.00;65523.91;5029350;28;45346;-71
2024/01/03 10:16:47;;;;;;;;;4.33;1.67;;;;;-144.24;100.00;65501.75;5027460;28;45548;-72
2024/01/03 10:19:13;;;;;;;;;3.67;1.00;;;;;-144.24;100.00;65453.47;5030480;28;45520;-73
2024/01/03 10:21:49;;;;;;;;;3.00;0.00;;;;;-144.24;100.00;64978.47;5035781;28;45787;-73
2024/01/03 10:24:15;;;;;;;;;3.00;2.00;;;;;-144.24;100.00;65014.69;5033975;28;45405;-76
2024/01/03 10:26:41;;;;;;;;;6.33;3.00;;;;;-144.24;100.00;65032.81;5035836;28;45302;-73
2024/01/03 10:29:17;;;;;;;;;8.33;1.67;;;;;-144.24;100.00;64646.41;5035029;28;45512;-72
2024/01/03 10:31:45;;;;;;;;;5.00;2.00;;;;;-144.24;100.00;64700.75;5034264;28;46140;-72
2024/01/03 10:34:18;;;;;;;;;3.00;2.00;;;;;-144.24;100.00;64720.88;5034880;28;45472;-72
2024/01/03 10:36:45;;;;;;;;;6.67;1.00;;;;;-144.24;100.00;64475.38;5032731;28;45399;-71
2024/01/03 10:39:14;;;;;;;;;9.00;4.00;;;;;-144.24;100.00;64521.66;5035711;28;46974;-72
2024/01/03 10:41:43;;;;;;;;;4.00;3.00;;;;;-144.24;100.00;63998.47;5033393;28;46645;-71
2024/01/03 10:44:10;;;;;;;;;6.00;2.00;;;;;-144.24;100.00;63932.09;5032694;28;45749;-71
2024/01/03 10:46:36;;;;;;;;;4.00;1.00;;;;;-144.24;100.00;63505.56;5034687;28;45500;-72
2024/01/03 10:49:03;;;;;;;;;10.67;2.00;;;;;-144.24;100.00;63087.13;5035475;28;45423;-73
2024/01/03 10:51:32;;;;;;;;;7.00;2.00;;;;;-144.24;100.00;62916.16;5034823;28;45923;-73
2024/01/03 10:53:58;;;;;;;;;5.33;2.00;;;;;-144.24;100.00;62451.53;5032766;28;45553;-72
2024/01/03 10:56:24;;;;;;;;;7.67;2.00;;;;;-144.24;100.00;62021.13;5014504;28;45564;-72
2024/01/03 10:58:52;;;;;;;;;5.00;2.33;;;;;-144.24;100.00;61574.72;5034621;28;59018;-72
2024/01/03 11:01:29;;;;;;;;;3.67;0.33;;;;;-144.24;100.00;60879.03;5033327;28;45869;-73
2024/01/03 11:04:13;;;;;;;;;5.67;1.00;;;;;-144.24;100.00;60348.28;5016435;28;45409;-72
2024/01/03 11:06:57;;;;;;;;;4.00;1.00;;;;;-144.24;100.00;59554.34;5033279;28;45390;-72